Newport, Mississippi
Current Conditions -  °F | °C
As of 12:54 PM on Saturday 20 Dec 2014 (Local Time) from KMEM Reporting Station
Overcast Overcast  
Wind Chill: 47°   Ceiling: 5500
Heat Index: 49°   Visibility: 10mi
Dew Point: 32°   Wind: 6mph
Humidity: 52%   Direction: 50°NE
Pressure: 30.23"   Gusts: NA
Location:  34.9155°N, 90.1878°W
Report Text: KMEM 201854Z 05005KT 10SM OVC055 09/00 A3023 RMK AO2 SLP237 T00940000 $
Loading
Personal Weather Stations






























Interactive Weather Map New forecast layout! Learn more

10-Day Weather Forecast

Advertisements
Track Severe Weather on mobile